Wetterdaten: Woche 27.04.15 - 03.05.15 (KW18)
Datum Zeit Temperatur Luftfeuchte Luftdruck Niederschlag Windrichtung Sonnenschein Solar Wind
27.04.2015 00:00 11,9 C 82 % 1001,4 hPa 0,0 l/m N 0,00 h 0 W/m 1,6 km/h (1 Bft)
27.04.2015 01:00 11,5 C 83 % 1001,1 hPa 0,0 l/m N 0,00 h 0 W/m 0,3 km/h (0 Bft)
27.04.2015 02:00 10,7 C 84 % 1000,7 hPa 0,0 l/m N 0,00 h 0 W/m 0,0 km/h (0 Bft)
27.04.2015 03:00 9,6 C 86 % 1000,3 hPa 0,0 l/m N 0,00 h 0 W/m 0,0 km/h (0 Bft)
27.04.2015 04:00 8,7 C 89 % 999,9 hPa 0,0 l/m N 0,00 h 0 W/m 0,1 km/h (0 Bft)
27.04.2015 05:00 8,1 C 90 % 999,8 hPa 0,0 l/m N 0,00 h 0 W/m 2,0 km/h (1 Bft)
27.04.2015 06:00 7,3 C 92 % 999,6 hPa 0,0 l/m N 0,00 h 22 W/m 0,5 km/h (0 Bft)
27.04.2015 07:00 8,7 C 95 % 999,8 hPa 0,0 l/m N 0,08 h 73 W/m 0,5 km/h (0 Bft)
27.04.2015 08:00 12,2 C 89 % 999,8 hPa 0,0 l/m N 0,67 h 235 W/m 3,2 km/h (1 Bft)
27.04.2015 09:00 15,0 C 76 % 999,8 hPa 0,0 l/m O-NO 0,67 h 394 W/m 8,7 km/h (2 Bft)
27.04.2015 10:00 17,1 C 67 % 999,6 hPa 0,0 l/m O-NO 1,00 h 615 W/m 15,2 km/h (3 Bft)
27.04.2015 11:00 17,9 C 64 % 999,4 hPa 0,0 l/m NO 0,83 h 631 W/m 16,9 km/h (3 Bft)
27.04.2015 12:00 18,5 C 63 % 998,9 hPa 0,0 l/m NO 0,75 h 766 W/m 17,4 km/h (3 Bft)
27.04.2015 13:00 19,5 C 58 % 998,3 hPa 0,0 l/m O-NO 0,58 h 633 W/m 17,0 km/h (3 Bft)
27.04.2015 14:00 20,8 C 53 % 997,7 hPa 0,0 l/m O-NO 0,75 h 708 W/m 15,4 km/h (3 Bft)
27.04.2015 15:00 21,1 C 51 % 997,1 hPa 0,0 l/m NO 0,33 h 398 W/m 15,3 km/h (3 Bft)
27.04.2015 16:00 19,6 C 64 % 996,5 hPa 0,6 l/m O-NO 0,00 h 133 W/m 9,9 km/h (2 Bft)
27.04.2015 17:00 18,3 C 73 % 996,0 hPa 0,0 l/m O-NO 0,25 h 206 W/m 9,5 km/h (2 Bft)
27.04.2015 18:00 18,4 C 67 % 996,1 hPa 0,0 l/m N-NO 0,42 h 167 W/m 17,3 km/h (3 Bft)
27.04.2015 19:00 17,1 C 73 % 996,2 hPa 0,0 l/m N-NO 0,00 h 41 W/m 11,7 km/h (2 Bft)
27.04.2015 20:00 16,5 C 75 % 996,7 hPa 0,0 l/m NO 0,00 h 12 W/m 10,8 km/h (2 Bft)
27.04.2015 21:00 15,1 C 79 % 997,7 hPa 0,0 l/m N 0,00 h 0 W/m 15,3 km/h (3 Bft)
27.04.2015 22:00 13,5 C 87 % 998,6 hPa 1,6 l/m N-NW 0,00 h 0 W/m 17,0 km/h (3 Bft)
27.04.2015 23:00 11,6 C 92 % 998,4 hPa 3,6 l/m N 0,00 h 0 W/m 22,0 km/h (4 Bft)
28.04.2015 00:00 11,1 C 95 % 999,2 hPa 1,4 l/m N 0,00 h 0 W/m 12,1 km/h (2 Bft)
28.04.2015 01:00 10,9 C 96 % 1000,2 hPa 1,0 l/m NW 0,00 h 0 W/m 9,7 km/h (2 Bft)
28.04.2015 02:00 10,6 C 96 % 1000,6 hPa 4,8 l/m N 0,00 h 0 W/m 11,4 km/h (2 Bft)
28.04.2015 03:00 9,6 C 96 % 1000,9 hPa 3,0 l/m N 0,00 h 0 W/m 17,2 km/h (3 Bft)
28.04.2015 04:00 8,3 C 96 % 1001,7 hPa 6,6 l/m N-NW 0,00 h 0 W/m 18,1 km/h (3 Bft)
28.04.2015 05:00 7,3 C 96 % 1002,7 hPa 3,0 l/m N-NW 0,00 h 0 W/m 19,2 km/h (3 Bft)
28.04.2015 06:00 6,4 C 96 % 1004,4 hPa 3,4 l/m W-NW 0,00 h 7 W/m 19,2 km/h (3 Bft)
28.04.2015 07:00 5,9 C 96 % 1006,4 hPa 2,6 l/m W-NW 0,00 h 16 W/m 13,0 km/h (3 Bft)
28.04.2015 08:00 5,6 C 96 % 1008,4 hPa 2,8 l/m W-NW 0,00 h 29 W/m 14,6 km/h (3 Bft)
28.04.2015 09:00 5,4 C 96 % 1009,7 hPa 1,0 l/m NW 0,00 h 57 W/m 14,6 km/h (3 Bft)
28.04.2015 10:00 5,8 C 96 % 1011,0 hPa 0,0 l/m W-NW 0,00 h 62 W/m 11,4 km/h (2 Bft)
28.04.2015 11:00 6,5 C 94 % 1012,2 hPa 0,0 l/m NW 0,00 h 93 W/m 16,0 km/h (3 Bft)
28.04.2015 12:00 6,1 C 93 % 1013,4 hPa 0,2 l/m N-NW 0,00 h 57 W/m 13,8 km/h (3 Bft)
28.04.2015 13:00 6,8 C 89 % 1014,3 hPa 0,0 l/m NW 0,00 h 113 W/m 9,7 km/h (2 Bft)
28.04.2015 14:00 6,9 C 85 % 1015,3 hPa 0,0 l/m NW 0,00 h 81 W/m 7,1 km/h (2 Bft)
28.04.2015 15:00 7,6 C 84 % 1016,0 hPa 0,0 l/m W-NW 0,00 h 121 W/m 9,5 km/h (2 Bft)
28.04.2015 16:00 8,8 C 74 % 1016,5 hPa 0,0 l/m W 0,25 h 254 W/m 14,6 km/h (3 Bft)
28.04.2015 17:00 8,3 C 74 % 1017,3 hPa 0,0 l/m W-NW 0,08 h 108 W/m 12,1 km/h (2 Bft)
28.04.2015 18:00 9,0 C 71 % 1018,0 hPa 0,0 l/m W 0,08 h 106 W/m 11,5 km/h (2 Bft)
28.04.2015 19:00 8,4 C 76 % 1018,7 hPa 0,0 l/m W 0,00 h 39 W/m 8,4 km/h (2 Bft)
28.04.2015 20:00 7,3 C 86 % 1019,4 hPa 0,0 l/m W-SW 0,00 h 10 W/m 10,1 km/h (2 Bft)
28.04.2015 21:00 6,4 C 90 % 1020,1 hPa 0,0 l/m SW 0,00 h 0 W/m 12,9 km/h (3 Bft)
28.04.2015 22:00 5,8 C 92 % 1020,5 hPa 0,0 l/m SW 0,00 h 0 W/m 3,2 km/h (1 Bft)
28.04.2015 23:00 6,8 C 89 % 1020,7 hPa 0,0 l/m N 0,00 h 0 W/m 0,7 km/h (0 Bft)
29.04.2015 00:00 5,2 C 86 % 1020,8 hPa 0,0 l/m N 0,00 h 0 W/m 0,4 km/h (0 Bft)
29.04.2015 01:00 3,8 C 89 % 1020,7 hPa 0,0 l/m N 0,00 h 0 W/m 0,0 km/h (0 Bft)
29.04.2015 02:00 3,1 C 92 % 1020,5 hPa 0,0 l/m N 0,00 h 0 W/m 0,1 km/h (0 Bft)
29.04.2015 03:00 2,4 C 93 % 1020,3 hPa 0,0 l/m N 0,00 h 0 W/m 0,0 km/h (0 Bft)
29.04.2015 04:00 1,7 C 94 % 1020,3 hPa 0,0 l/m N 0,00 h 0 W/m 0,0 km/h (0 Bft)
29.04.2015 05:00 1,4 C 94 % 1020,0 hPa 0,0 l/m N 0,00 h 0 W/m 0,5 km/h (0 Bft)
29.04.2015 06:00 1,1 C 95 % 1019,6 hPa 0,0 l/m SW 0,08 h 21 W/m 3,9 km/h (1 Bft)
29.04.2015 07:00 1,2 C 96 % 1019,5 hPa 0,2 l/m SW 0,25 h 105 W/m 4,8 km/h (1 Bft)
29.04.2015 08:00 3,0 C 97 % 1019,2 hPa 0,0 l/m NW 0,75 h 244 W/m 7,3 km/h (2 Bft)
29.04.2015 09:00 7,0 C 88 % 1018,6 hPa 0,0 l/m NO 1,00 h 437 W/m 11,4 km/h (2 Bft)
29.04.2015 10:00 9,7 C 69 % 1018,4 hPa 0,0 l/m O 1,00 h 545 W/m 20,1 km/h (4 Bft)
29.04.2015 11:00 10,6 C 61 % 1018,2 hPa 0,0 l/m O-SO 0,92 h 598 W/m 19,3 km/h (3 Bft)
29.04.2015 12:00 11,9 C 56 % 1017,4 hPa 0,0 l/m O-NO 1,00 h 696 W/m 18,6 km/h (3 Bft)
29.04.2015 13:00 13,1 C 54 % 1016,7 hPa 0,0 l/m O-NO 1,00 h 735 W/m 16,1 km/h (3 Bft)
29.04.2015 14:00 14,5 C 49 % 1016,0 hPa 0,0 l/m O-NO 1,00 h 791 W/m 15,3 km/h (3 Bft)
29.04.2015 15:00 15,0 C 48 % 1015,2 hPa 0,0 l/m O 1,00 h 635 W/m 15,0 km/h (3 Bft)
29.04.2015 16:00 15,4 C 46 % 1014,4 hPa 0,0 l/m O-SO 0,83 h 537 W/m 15,3 km/h (3 Bft)
29.04.2015 17:00 15,0 C 45 % 1013,9 hPa 0,0 l/m O 0,83 h 371 W/m 14,6 km/h (3 Bft)
29.04.2015 18:00 14,3 C 49 % 1013,6 hPa 0,0 l/m O 0,00 h 125 W/m 9,1 km/h (2 Bft)
29.04.2015 19:00 13,2 C 55 % 1013,6 hPa 0,0 l/m O-NO 0,00 h 47 W/m 4,3 km/h (1 Bft)
29.04.2015 20:00 11,3 C 69 % 1013,7 hPa 0,0 l/m O-NO 0,00 h 9 W/m 1,2 km/h (1 Bft)
29.04.2015 21:00 10,0 C 75 % 1014,2 hPa 0,0 l/m N 0,00 h 0 W/m 2,1 km/h (1 Bft)
29.04.2015 22:00 9,3 C 79 % 1014,4 hPa 0,0 l/m O-NO 0,00 h 0 W/m 1,2 km/h (1 Bft)
29.04.2015 23:00 8,4 C 82 % 1014,7 hPa 0,0 l/m N 0,00 h 0 W/m 0,1 km/h (0 Bft)
30.04.2015 00:00 8,5 C 81 % 1014,9 hPa 0,0 l/m W-SW 0,00 h 0 W/m 4,7 km/h (1 Bft)
30.04.2015 01:00 8,8 C 77 % 1014,8 hPa 0,0 l/m W-SW 0,00 h 0 W/m 8,0 km/h (2 Bft)
30.04.2015 02:00 8,9 C 77 % 1014,9 hPa 0,0 l/m W-SW 0,00 h 0 W/m 9,5 km/h (2 Bft)
30.04.2015 03:00 9,1 C 78 % 1015,2 hPa 0,0 l/m SW 0,00 h 0 W/m 12,6 km/h (3 Bft)
30.04.2015 04:00 8,7 C 82 % 1015,4 hPa 0,0 l/m SW 0,00 h 0 W/m 11,5 km/h (2 Bft)
30.04.2015 05:00 8,3 C 80 % 1015,5 hPa 0,0 l/m W-SW 0,00 h 0 W/m 12,2 km/h (2 Bft)
30.04.2015 06:00 8,1 C 79 % 1015,6 hPa 0,0 l/m W-SW 0,00 h 11 W/m 8,4 km/h (2 Bft)
30.04.2015 07:00 8,0 C 79 % 1016,0 hPa 0,0 l/m W-SW 0,00 h 40 W/m 11,8 km/h (2 Bft)
30.04.2015 08:00 8,4 C 78 % 1016,1 hPa 0,0 l/m W-SW 0,00 h 76 W/m 12,1 km/h (2 Bft)
30.04.2015 09:00 9,5 C 74 % 1016,1 hPa 0,0 l/m W-SW 0,58 h 379 W/m 14,5 km/h (3 Bft)
30.04.2015 10:00 12,1 C 60 % 1015,6 hPa 0,0 l/m W-SW 0,92 h 595 W/m 21,4 km/h (4 Bft)
30.04.2015 11:00 12,6 C 53 % 1015,2 hPa 0,0 l/m W 0,33 h 370 W/m 16,8 km/h (3 Bft)
30.04.2015 12:00 13,8 C 51 % 1014,5 hPa 0,0 l/m W-SW 0,83 h 810 W/m 22,0 km/h (4 Bft)
30.04.2015 13:00 14,7 C 47 % 1013,8 hPa 0,0 l/m W-SW 0,83 h 705 W/m 24,4 km/h (4 Bft)
30.04.2015 14:00 14,6 C 46 % 1013,0 hPa 0,0 l/m W 0,25 h 398 W/m 20,5 km/h (4 Bft)
30.04.2015 15:00 14,9 C 46 % 1012,2 hPa 0,0 l/m W-SW 0,42 h 379 W/m 20,5 km/h (4 Bft)
30.04.2015 16:00 14,2 C 47 % 1011,9 hPa 0,0 l/m W-SW 0,00 h 173 W/m 16,8 km/h (3 Bft)
30.04.2015 17:00 14,1 C 48 % 1011,6 hPa 0,0 l/m W-SW 0,00 h 128 W/m 12,1 km/h (2 Bft)
30.04.2015 18:00 13,2 C 49 % 1011,8 hPa 0,0 l/m W-NW 0,00 h 42 W/m 17,7 km/h (3 Bft)
30.04.2015 19:00 11,5 C 64 % 1012,6 hPa 0,0 l/m W-NW 0,00 h 17 W/m 14,9 km/h (3 Bft)
30.04.2015 20:00 9,6 C 77 % 1012,8 hPa 0,0 l/m NW 0,00 h 7 W/m 9,5 km/h (2 Bft)
30.04.2015 21:00 9,1 C 81 % 1012,5 hPa 0,0 l/m W-NW 0,00 h 0 W/m 4,2 km/h (1 Bft)
30.04.2015 22:00 9,1 C 81 % 1012,3 hPa 0,0 l/m W-SW 0,00 h 0 W/m 9,0 km/h (2 Bft)
30.04.2015 23:00 8,8 C 85 % 1011,9 hPa 0,2 l/m W-SW 0,00 h 0 W/m 5,7 km/h (1 Bft)
01.05.2015 00:00 8,1 C 91 % 1011,6 hPa 0,8 l/m W 0,00 h 0 W/m 6,4 km/h (2 Bft)
01.05.2015 01:00 7,6 C 93 % 1011,3 hPa 2,2 l/m W 0,00 h 0 W/m 9,8 km/h (2 Bft)
01.05.2015 02:00 7,3 C 94 % 1010,3 hPa 1,4 l/m W 0,00 h 0 W/m 2,0 km/h (1 Bft)
01.05.2015 03:00 7,5 C 96 % 1009,3 hPa 1,0 l/m S-SW 0,00 h 0 W/m 10,2 km/h (2 Bft)
01.05.2015 04:00 7,6 C 96 % 1008,4 hPa 1,2 l/m S-SW 0,00 h 0 W/m 12,1 km/h (2 Bft)
01.05.2015 05:00 7,6 C 97 % 1007,6 hPa 0,6 l/m SW 0,00 h 0 W/m 12,4 km/h (3 Bft)
01.05.2015 06:00 7,7 C 97 % 1006,9 hPa 0,8 l/m SW 0,00 h 7 W/m 10,5 km/h (2 Bft)
01.05.2015 07:00 7,9 C 98 % 1006,5 hPa 1,2 l/m SW 0,00 h 23 W/m 9,0 km/h (2 Bft)
01.05.2015 08:00 8,3 C 98 % 1006,1 hPa 0,8 l/m S-SW 0,00 h 41 W/m 10,9 km/h (2 Bft)
01.05.2015 09:00 8,6 C 98 % 1005,6 hPa 1,6 l/m S-SW 0,00 h 52 W/m 4,6 km/h (1 Bft)
01.05.2015 10:00 9,1 C 98 % 1005,1 hPa 1,8 l/m S-SW 0,00 h 61 W/m 1,7 km/h (1 Bft)
01.05.2015 11:00 9,5 C 98 % 1004,8 hPa 1,6 l/m S-SW 0,00 h 88 W/m 6,6 km/h (2 Bft)
01.05.2015 12:00 9,9 C 98 % 1004,7 hPa 2,0 l/m S-SW 0,00 h 81 W/m 12,4 km/h (3 Bft)
01.05.2015 13:00 10,0 C 98 % 1004,4 hPa 3,4 l/m S-SW 0,00 h 63 W/m 12,2 km/h (2 Bft)
01.05.2015 14:00 10,5 C 99 % 1004,0 hPa 2,4 l/m SW 0,00 h 66 W/m 11,7 km/h (2 Bft)
01.05.2015 15:00 11,0 C 98 % 1003,4 hPa 1,2 l/m SW 0,00 h 57 W/m 16,9 km/h (3 Bft)
01.05.2015 16:00 11,4 C 98 % 1002,7 hPa 1,0 l/m SW 0,00 h 71 W/m 20,2 km/h (4 Bft)
01.05.2015 17:00 11,6 C 98 % 1002,3 hPa 0,2 l/m SW 0,00 h 50 W/m 16,6 km/h (3 Bft)
01.05.2015 18:00 11,7 C 98 % 1002,2 hPa 2,0 l/m SW 0,00 h 27 W/m 13,4 km/h (3 Bft)
01.05.2015 19:00 10,8 C 97 % 1002,3 hPa 4,0 l/m O 0,00 h 7 W/m 8,6 km/h (2 Bft)
01.05.2015 20:00 9,2 C 97 % 1002,4 hPa 7,2 l/m N-NO 0,00 h 0 W/m 6,6 km/h (2 Bft)
01.05.2015 21:00 8,6 C 97 % 1002,8 hPa 4,8 l/m N-NO 0,00 h 0 W/m 8,8 km/h (2 Bft)
01.05.2015 22:00 8,4 C 98 % 1003,0 hPa 1,6 l/m N-NW 0,00 h 0 W/m 2,9 km/h (1 Bft)
01.05.2015 23:00 8,2 C 98 % 1003,8 hPa 5,2 l/m N 0,00 h 0 W/m 8,6 km/h (2 Bft)
02.05.2015 00:00 8,0 C 98 % 1004,7 hPa 6,6 l/m N 0,00 h 0 W/m 0,7 km/h (0 Bft)
02.05.2015 01:00 8,0 C 98 % 1005,4 hPa 3,0 l/m N 0,00 h 0 W/m 2,0 km/h (1 Bft)
02.05.2015 02:00 8,1 C 98 % 1005,7 hPa 0,0 l/m N 0,00 h 0 W/m 4,3 km/h (1 Bft)
02.05.2015 03:00 7,9 C 98 % 1005,9 hPa 0,2 l/m N 0,00 h 0 W/m 2,4 km/h (1 Bft)
02.05.2015 04:00 7,6 C 98 % 1006,5 hPa 0,0 l/m N 0,00 h 0 W/m 0,4 km/h (0 Bft)
02.05.2015 05:00 7,6 C 99 % 1007,1 hPa 0,0 l/m N 0,00 h 0 W/m 0,4 km/h (0 Bft)
02.05.2015 06:00 7,7 C 99 % 1008,3 hPa 0,0 l/m N 0,00 h 10 W/m 0,3 km/h (0 Bft)
02.05.2015 07:00 8,1 C 99 % 1008,9 hPa 0,0 l/m N 0,00 h 58 W/m 2,3 km/h (1 Bft)
02.05.2015 08:00 9,5 C 99 % 1009,7 hPa 0,0 l/m W-NW 0,00 h 97 W/m 7,4 km/h (2 Bft)
02.05.2015 09:00 10,3 C 96 % 1010,4 hPa 0,0 l/m W-NW 0,00 h 146 W/m 8,1 km/h (2 Bft)
02.05.2015 10:00 11,6 C 92 % 1010,5 hPa 0,0 l/m NW 0,08 h 226 W/m 6,8 km/h (2 Bft)
02.05.2015 11:00 12,5 C 88 % 1010,4 hPa 0,0 l/m NW 0,08 h 188 W/m 6,7 km/h (2 Bft)
02.05.2015 12:00 13,0 C 86 % 1010,3 hPa 0,0 l/m NW 0,08 h 265 W/m 6,3 km/h (2 Bft)
02.05.2015 13:00 14,8 C 78 % 1010,0 hPa 0,0 l/m W-NW 0,17 h 384 W/m 12,8 km/h (3 Bft)
02.05.2015 14:00 15,6 C 72 % 1009,8 hPa 0,0 l/m W-NW 0,25 h 339 W/m 14,2 km/h (3 Bft)
02.05.2015 15:00 14,7 C 75 % 1009,9 hPa 1,2 l/m NW 0,00 h 64 W/m 7,8 km/h (2 Bft)
02.05.2015 16:00 13,1 C 90 % 1009,9 hPa 0,4 l/m NW 0,00 h 136 W/m 1,2 km/h (1 Bft)
02.05.2015 17:00 13,4 C 89 % 1009,9 hPa 0,4 l/m NW 0,00 h 69 W/m 2,9 km/h (1 Bft)
02.05.2015 18:00 13,1 C 90 % 1009,7 hPa 0,2 l/m N 0,00 h 65 W/m 0,0 km/h (0 Bft)
02.05.2015 19:00 12,7 C 92 % 1009,5 hPa 0,0 l/m N 0,00 h 26 W/m 0,0 km/h (0 Bft)
02.05.2015 20:00 12,2 C 94 % 1009,6 hPa 0,0 l/m N 0,00 h 6 W/m 0,0 km/h (0 Bft)
02.05.2015 21:00 11,8 C 95 % 1009,9 hPa 0,0 l/m W 0,00 h 0 W/m 4,1 km/h (1 Bft)
02.05.2015 22:00 11,4 C 96 % 1010,1 hPa 0,4 l/m W-SW 0,00 h 0 W/m 5,5 km/h (1 Bft)
02.05.2015 23:00 11,3 C 97 % 1009,6 hPa 0,2 l/m SW 0,00 h 0 W/m 8,4 km/h (2 Bft)
03.05.2015 00:00 11,3 C 97 % 1009,4 hPa 0,4 l/m SW 0,00 h 0 W/m 8,4 km/h (2 Bft)
03.05.2015 01:00 11,1 C 97 % 1008,4 hPa 0,8 l/m S-SW 0,00 h 0 W/m 7,5 km/h (2 Bft)
03.05.2015 02:00 10,7 C 97 % 1007,5 hPa 3,0 l/m S-SW 0,00 h 0 W/m 6,7 km/h (2 Bft)
03.05.2015 03:00 10,2 C 98 % 1006,8 hPa 2,6 l/m S-SW 0,00 h 0 W/m 2,7 km/h (1 Bft)
03.05.2015 04:00 9,9 C 98 % 1006,2 hPa 0,8 l/m S-SW 0,00 h 0 W/m 2,3 km/h (1 Bft)
03.05.2015 05:00 9,9 C 98 % 1005,9 hPa 1,2 l/m S-SW 0,00 h 0 W/m 9,8 km/h (2 Bft)
03.05.2015 06:00 10,2 C 98 % 1006,0 hPa 0,8 l/m SW 0,00 h 9 W/m 13,7 km/h (3 Bft)
03.05.2015 07:00 10,7 C 99 % 1006,4 hPa 0,0 l/m SW 0,00 h 24 W/m 12,6 km/h (3 Bft)
03.05.2015 08:00 11,1 C 99 % 1006,5 hPa 0,4 l/m SW 0,00 h 34 W/m 14,1 km/h (3 Bft)
03.05.2015 09:00 11,6 C 99 % 1006,7 hPa 0,0 l/m SW 0,00 h 66 W/m 14,6 km/h (3 Bft)
03.05.2015 10:00 12,5 C 100 % 1006,9 hPa 0,0 l/m SW 0,00 h 94 W/m 13,6 km/h (3 Bft)
03.05.2015 11:00 13,5 C 100 % 1006,7 hPa 0,0 l/m SW 0,00 h 171 W/m 17,6 km/h (3 Bft)
03.05.2015 12:00 14,1 C 98 % 1006,9 hPa 0,0 l/m W-SW 0,00 h 134 W/m 20,4 km/h (4 Bft)
03.05.2015 13:00 14,7 C 95 % 1007,2 hPa 0,2 l/m W-SW 0,00 h 178 W/m 19,0 km/h (3 Bft)
03.05.2015 14:00 14,9 C 96 % 1007,2 hPa 0,6 l/m SW 0,00 h 172 W/m 16,8 km/h (3 Bft)
03.05.2015 15:00 15,2 C 97 % 1007,0 hPa 0,2 l/m SW 0,00 h 137 W/m 18,5 km/h (3 Bft)
03.05.2015 16:00 15,3 C 98 % 1006,4 hPa 0,2 l/m S-SW 0,00 h 159 W/m 18,4 km/h (3 Bft)
03.05.2015 17:00 16,0 C 97 % 1006,0 hPa 0,0 l/m SW 0,33 h 203 W/m 16,4 km/h (3 Bft)
03.05.2015 18:00 16,8 C 93 % 1005,7 hPa 0,0 l/m SW 0,08 h 99 W/m 15,8 km/h (3 Bft)
03.05.2015 19:00 15,8 C 95 % 1006,0 hPa 0,0 l/m SW 0,00 h 18 W/m 9,8 km/h (2 Bft)
03.05.2015 20:00 15,2 C 95 % 1006,3 hPa 0,4 l/m W-SW 0,00 h 6 W/m 19,2 km/h (3 Bft)
03.05.2015 21:00 15,0 C 96 % 1007,0 hPa 0,0 l/m SW 0,00 h 0 W/m 12,1 km/h (2 Bft)
03.05.2015 22:00 14,9 C 97 % 1007,5 hPa 0,0 l/m N 0,00 h 0 W/m 3,7 km/h (1 Bft)
03.05.2015 23:00 14,7 C 97 % 1007,6 hPa 0,2 l/m SW 0,00 h 0 W/m 3,5 km/h (1 Bft)
Min-Datum _ 29.04.15 30.04.15 27.04.15 - - - - 27.04.15
_ Min-Zeit 06:55 14:20 17:35 - - - - 00:05
Minimum _ 0,8 C 44 % 995,6 hPa - - - - 0,0 km/h (0 Bft)
Max-Datum _ 27.04.15 03.05.15 29.04.15 01.05.15 - 27.04.15 27.04.15 30.04.15
_ Max-Zeit 15:55 09:25 00:50 20:05 - 07:45 13:20 10:55
Maximum _ 21,9 C 100 % 1020,9 hPa 7,2 l/m - 0,08 h 984 W/m 32,2 km/h
SW (5 Bft)
Durchschnitt _ 10,6 C 85 % 1008,9 hPa #110,4 l/m SW #21:40 h 197 W/m 9,9 km/h (2 Bft)